sensor_id;sensor_type;location;lat;lon;timestamp;P1;durP1;ratioP1;P2;durP2;ratioP2
49942;SDS011;36011;53.362;58.948;2022-10-14T00:02:52;2.70;;;2.22;;
49942;SDS011;36011;53.362;58.948;2022-10-14T00:05:53;3.58;;;2.63;;
49942;SDS011;36011;53.362;58.948;2022-10-14T00:08:55;3.13;;;2.22;;
49942;SDS011;36011;53.362;58.948;2022-10-14T00:12:02;2.75;;;2.55;;
49942;SDS011;36011;53.362;58.948;2022-10-14T00:15:04;3.03;;;2.58;;
49942;SDS011;36011;53.362;58.948;2022-10-14T00:18:09;3.85;;;3.20;;
49942;SDS011;36011;53.362;58.948;2022-10-14T00:21:14;4.90;;;3.63;;
49942;SDS011;36011;53.362;58.948;2022-10-14T00:24:19;3.45;;;2.78;;
49942;SDS011;36011;53.362;58.948;2022-10-14T00:27:23;3.58;;;3.03;;
49942;SDS011;36011;53.362;58.948;2022-10-14T00:30:27;4.35;;;3.08;;
49942;SDS011;36011;53.362;58.948;2022-10-14T00:36:35;2.97;;;2.50;;
49942;SDS011;36011;53.362;58.948;2022-10-14T00:39:38;1.80;;;1.38;;
49942;SDS011;36011;53.362;58.948;2022-10-14T00:42:42;4.45;;;2.92;;
49942;SDS011;36011;53.362;58.948;2022-10-14T00:48:50;2.58;;;2.38;;
49942;SDS011;36011;53.362;58.948;2022-10-14T00:52:03;3.00;;;2.65;;
49942;SDS011;36011;53.362;58.948;2022-10-14T00:55:14;2.60;;;2.40;;
49942;SDS011;36011;53.362;58.948;2022-10-14T00:58:19;2.75;;;2.42;;
49942;SDS011;36011;53.362;58.948;2022-10-14T01:01:23;3.17;;;2.65;;
49942;SDS011;36011;53.362;58.948;2022-10-14T01:04:28;3.40;;;2.90;;
49942;SDS011;36011;53.362;58.948;2022-10-14T01:11:04;2.65;;;2.45;;
49942;SDS011;36011;53.362;58.948;2022-10-14T01:14:32;3.38;;;2.67;;
49942;SDS011;36011;53.362;58.948;2022-10-14T01:21:08;2.25;;;2.10;;
49942;SDS011;36011;53.362;58.948;2022-10-14T01:24:31;2.92;;;2.60;;
49942;SDS011;36011;53.362;58.948;2022-10-14T01:31:13;2.85;;;2.58;;
49942;SDS011;36011;53.362;58.948;2022-10-14T01:34:24;2.13;;;1.90;;
49942;SDS011;36011;53.362;58.948;2022-10-14T01:37:43;2.55;;;2.35;;
49942;SDS011;36011;53.362;58.948;2022-10-14T01:41:17;2.05;;;1.63;;
49942;SDS011;36011;53.362;58.948;2022-10-14T01:44:46;2.83;;;2.58;;
49942;SDS011;36011;53.362;58.948;2022-10-14T01:47:55;2.70;;;2.50;;
49942;SDS011;36011;53.362;58.948;2022-10-14T01:51:03;3.25;;;2.50;;
49942;SDS011;36011;53.362;58.948;2022-10-14T01:54:15;3.45;;;2.70;;
49942;SDS011;36011;53.362;58.948;2022-10-14T01:57:26;4.00;;;3.33;;
49942;SDS011;36011;53.362;58.948;2022-10-14T02:00:35;2.90;;;2.47;;
49942;SDS011;36011;53.362;58.948;2022-10-14T02:03:41;2.67;;;2.03;;
49942;SDS011;36011;53.362;58.948;2022-10-14T02:06:52;2.97;;;2.67;;
49942;SDS011;36011;53.362;58.948;2022-10-14T02:16:56;2.88;;;2.67;;
49942;SDS011;36011;53.362;58.948;2022-10-14T02:20:07;3.08;;;2.72;;
49942;SDS011;36011;53.362;58.948;2022-10-14T02:23:36;4.55;;;3.25;;
49942;SDS011;36011;53.362;58.948;2022-10-14T02:26:45;3.15;;;2.80;;
49942;SDS011;36011;53.362;58.948;2022-10-14T02:29:50;3.13;;;2.83;;
49942;SDS011;36011;53.362;58.948;2022-10-14T02:32:54;2.85;;;2.35;;
49942;SDS011;36011;53.362;58.948;2022-10-14T02:35:59;3.97;;;2.35;;
49942;SDS011;36011;53.362;58.948;2022-10-14T02:39:03;2.95;;;2.67;;
49942;SDS011;36011;53.362;58.948;2022-10-14T02:42:12;3.35;;;2.83;;
49942;SDS011;36011;53.362;58.948;2022-10-14T02:48:18;3.25;;;2.60;;
49942;SDS011;36011;53.362;58.948;2022-10-14T02:51:20;3.10;;;2.60;;
49942;SDS011;36011;53.362;58.948;2022-10-14T02:54:22;3.35;;;3.05;;
49942;SDS011;36011;53.362;58.948;2022-10-14T02:57:26;2.95;;;2.58;;
49942;SDS011;36011;53.362;58.948;2022-10-14T03:00:30;2.35;;;2.15;;
49942;SDS011;36011;53.362;58.948;2022-10-14T03:03:34;2.42;;;1.95;;
49942;SDS011;36011;53.362;58.948;2022-10-14T03:06:38;2.40;;;2.20;;
49942;SDS011;36011;53.362;58.948;2022-10-14T03:09:39;4.00;;;2.15;;
49942;SDS011;36011;53.362;58.948;2022-10-14T03:12:44;1.95;;;1.75;;
49942;SDS011;36011;53.362;58.948;2022-10-14T03:15:49;2.40;;;2.20;;
49942;SDS011;36011;53.362;58.948;2022-10-14T03:18:56;2.25;;;2.10;;
49942;SDS011;36011;53.362;58.948;2022-10-14T03:21:59;1.45;;;1.33;;
49942;SDS011;36011;53.362;58.948;2022-10-14T03:25:00;2.45;;;2.20;;
49942;SDS011;36011;53.362;58.948;2022-10-14T03:28:06;2.08;;;1.90;;
49942;SDS011;36011;53.362;58.948;2022-10-14T03:31:07;1.98;;;1.83;;
49942;SDS011;36011;53.362;58.948;2022-10-14T03:34:08;3.20;;;2.13;;
49942;SDS011;36011;53.362;58.948;2022-10-14T03:37:10;2.30;;;2.10;;
49942;SDS011;36011;53.362;58.948;2022-10-14T03:40:11;2.45;;;2.20;;
49942;SDS011;36011;53.362;58.948;2022-10-14T03:43:15;1.80;;;1.70;;
49942;SDS011;36011;53.362;58.948;2022-10-14T03:46:17;2.17;;;1.98;;
49942;SDS011;36011;53.362;58.948;2022-10-14T03:49:18;4.57;;;3.00;;
49942;SDS011;36011;53.362;58.948;2022-10-14T03:52:22;2.78;;;2.08;;
49942;SDS011;36011;53.362;58.948;2022-10-14T03:55:23;2.47;;;2.17;;
49942;SDS011;36011;53.362;58.948;2022-10-14T03:58:27;2.53;;;1.80;;
49942;SDS011;36011;53.362;58.948;2022-10-14T04:01:32;1.88;;;1.77;;
49942;SDS011;36011;53.362;58.948;2022-10-14T04:04:38;2.50;;;2.10;;
49942;SDS011;36011;53.362;58.948;2022-10-14T04:07:45;2.38;;;2.17;;
49942;SDS011;36011;53.362;58.948;2022-10-14T04:10:52;1.83;;;1.73;;
49942;SDS011;36011;53.362;58.948;2022-10-14T04:13:59;2.13;;;1.80;;
49942;SDS011;36011;53.362;58.948;2022-10-14T04:17:01;2.65;;;2.35;;
49942;SDS011;36011;53.362;58.948;2022-10-14T04:20:05;2.08;;;1.88;;
49942;SDS011;36011;53.362;58.948;2022-10-14T04:23:07;1.48;;;1.38;;
49942;SDS011;36011;53.362;58.948;2022-10-14T04:26:09;2.47;;;2.28;;
49942;SDS011;36011;53.362;58.948;2022-10-14T04:29:13;2.25;;;2.00;;
49942;SDS011;36011;53.362;58.948;2022-10-14T04:32:15;2.92;;;2.38;;
49942;SDS011;36011;53.362;58.948;2022-10-14T04:35:20;3.72;;;3.20;;
49942;SDS011;36011;53.362;58.948;2022-10-14T04:38:21;4.90;;;3.83;;
49942;SDS011;36011;53.362;58.948;2022-10-14T04:41:25;3.25;;;2.80;;
49942;SDS011;36011;53.362;58.948;2022-10-14T04:44:29;1.90;;;1.70;;
49942;SDS011;36011;53.362;58.948;2022-10-14T04:47:31;2.67;;;2.47;;
49942;SDS011;36011;53.362;58.948;2022-10-14T04:50:37;2.50;;;2.22;;
49942;SDS011;36011;53.362;58.948;2022-10-14T04:53:41;3.55;;;2.55;;
49942;SDS011;36011;53.362;58.948;2022-10-14T04:56:44;3.55;;;2.95;;
49942;SDS011;36011;53.362;58.948;2022-10-14T05:02:49;2.85;;;2.33;;
49942;SDS011;36011;53.362;58.948;2022-10-14T05:05:51;3.22;;;2.30;;
49942;SDS011;36011;53.362;58.948;2022-10-14T05:08:52;3.92;;;3.13;;
49942;SDS011;36011;53.362;58.948;2022-10-14T05:11:54;4.88;;;4.00;;
49942;SDS011;36011;53.362;58.948;2022-10-14T05:14:58;5.40;;;3.78;;
49942;SDS011;36011;53.362;58.948;2022-10-14T05:17:59;3.47;;;3.00;;
49942;SDS011;36011;53.362;58.948;2022-10-14T05:21:04;2.55;;;2.33;;
49942;SDS011;36011;53.362;58.948;2022-10-14T05:24:17;2.40;;;2.20;;
49942;SDS011;36011;53.362;58.948;2022-10-14T05:27:21;3.30;;;2.00;;
49942;SDS011;36011;53.362;58.948;2022-10-14T05:30:22;1.90;;;1.80;;
49942;SDS011;36011;53.362;58.948;2022-10-14T05:36:30;2.22;;;2.03;;
49942;SDS011;36011;53.362;58.948;2022-10-14T05:39:31;2.30;;;2.10;;
49942;SDS011;36011;53.362;58.948;2022-10-14T05:42:37;3.85;;;2.97;;
49942;SDS011;36011;53.362;58.948;2022-10-14T05:45:42;2.58;;;2.17;;
49942;SDS011;36011;53.362;58.948;2022-10-14T05:48:46;2.38;;;2.17;;
49942;SDS011;36011;53.362;58.948;2022-10-14T05:51:47;5.40;;;3.80;;
49942;SDS011;36011;53.362;58.948;2022-10-14T05:54:52;2.80;;;2.53;;
49942;SDS011;36011;53.362;58.948;2022-10-14T05:57:57;1.90;;;1.73;;
49942;SDS011;36011;53.362;58.948;2022-10-14T06:04:05;3.03;;;2.72;;
49942;SDS011;36011;53.362;58.948;2022-10-14T06:07:07;2.95;;;2.40;;
49942;SDS011;36011;53.362;58.948;2022-10-14T06:10:12;3.88;;;3.47;;
49942;SDS011;36011;53.362;58.948;2022-10-14T06:16:17;2.95;;;2.65;;
49942;SDS011;36011;53.362;58.948;2022-10-14T06:19:19;2.60;;;2.40;;
49942;SDS011;36011;53.362;58.948;2022-10-14T06:22:26;2.60;;;2.33;;
49942;SDS011;36011;53.362;58.948;2022-10-14T06:25:31;2.33;;;2.13;;
49942;SDS011;36011;53.362;58.948;2022-10-14T06:28:36;2.45;;;2.00;;
49942;SDS011;36011;53.362;58.948;2022-10-14T06:31:38;1.85;;;1.75;;
49942;SDS011;36011;53.362;58.948;2022-10-14T06:34:39;2.90;;;1.40;;
49942;SDS011;36011;53.362;58.948;2022-10-14T06:37:44;2.65;;;1.60;;
49942;SDS011;36011;53.362;58.948;2022-10-14T06:40:52;2.20;;;1.90;;
49942;SDS011;36011;53.362;58.948;2022-10-14T06:43:55;2.47;;;1.73;;
49942;SDS011;36011;53.362;58.948;2022-10-14T06:47:01;1.58;;;1.48;;
49942;SDS011;36011;53.362;58.948;2022-10-14T06:50:02;2.65;;;1.63;;
49942;SDS011;36011;53.362;58.948;2022-10-14T06:53:05;1.52;;;1.42;;
49942;SDS011;36011;53.362;58.948;2022-10-14T06:56:08;2.42;;;1.50;;
49942;SDS011;36011;53.362;58.948;2022-10-14T06:59:11;1.23;;;0.95;;
49942;SDS011;36011;53.362;58.948;2022-10-14T07:02:13;2.28;;;1.35;;
49942;SDS011;36011;53.362;58.948;2022-10-14T07:05:17;2.55;;;1.17;;
49942;SDS011;36011;53.362;58.948;2022-10-14T07:08:21;1.70;;;1.60;;
49942;SDS011;36011;53.362;58.948;2022-10-14T07:11:23;1.33;;;1.20;;
49942;SDS011;36011;53.362;58.948;2022-10-14T07:14:27;1.13;;;1.02;;
49942;SDS011;36011;53.362;58.948;2022-10-14T07:17:28;1.30;;;1.20;;
49942;SDS011;36011;53.362;58.948;2022-10-14T07:20:32;0.98;;;0.88;;
49942;SDS011;36011;53.362;58.948;2022-10-14T07:23:36;3.08;;;1.60;;
49942;SDS011;36011;53.362;58.948;2022-10-14T07:26:40;2.15;;;1.58;;
49942;SDS011;36011;53.362;58.948;2022-10-14T07:29:42;2.35;;;1.75;;
49942;SDS011;36011;53.362;58.948;2022-10-14T07:32:43;1.95;;;1.83;;
49942;SDS011;36011;53.362;58.948;2022-10-14T07:35:47;4.93;;;2.22;;
49942;SDS011;36011;53.362;58.948;2022-10-14T07:38:49;4.68;;;2.72;;
49942;SDS011;36011;53.362;58.948;2022-10-14T07:41:50;3.22;;;2.00;;
49942;SDS011;36011;53.362;58.948;2022-10-14T07:44:54;4.97;;;2.00;;
49942;SDS011;36011;53.362;58.948;2022-10-14T07:47:57;3.13;;;2.03;;
49942;SDS011;36011;53.362;58.948;2022-10-14T07:51:01;2.35;;;1.95;;
49942;SDS011;36011;53.362;58.948;2022-10-14T07:54:06;4.55;;;2.83;;
49942;SDS011;36011;53.362;58.948;2022-10-14T07:57:14;2.70;;;2.38;;
49942;SDS011;36011;53.362;58.948;2022-10-14T08:00:16;5.97;;;3.65;;
49942;SDS011;36011;53.362;58.948;2022-10-14T08:03:22;5.20;;;2.95;;
49942;SDS011;36011;53.362;58.948;2022-10-14T08:06:25;4.38;;;2.38;;
49942;SDS011;36011;53.362;58.948;2022-10-14T08:09:26;2.90;;;1.98;;
49942;SDS011;36011;53.362;58.948;2022-10-14T08:12:28;5.10;;;3.35;;
49942;SDS011;36011;53.362;58.948;2022-10-14T08:15:33;3.78;;;3.05;;
49942;SDS011;36011;53.362;58.948;2022-10-14T08:18:43;4.72;;;3.20;;
49942;SDS011;36011;53.362;58.948;2022-10-14T08:21:47;5.30;;;3.63;;
49942;SDS011;36011;53.362;58.948;2022-10-14T08:24:49;3.17;;;2.67;;
49942;SDS011;36011;53.362;58.948;2022-10-14T08:27:50;3.38;;;2.90;;
49942;SDS011;36011;53.362;58.948;2022-10-14T08:30:54;3.08;;;2.45;;
49942;SDS011;36011;53.362;58.948;2022-10-14T08:33:55;3.45;;;2.63;;
49942;SDS011;36011;53.362;58.948;2022-10-14T08:37:00;3.20;;;2.58;;
49942;SDS011;36011;53.362;58.948;2022-10-14T08:40:04;2.53;;;2.22;;
49942;SDS011;36011;53.362;58.948;2022-10-14T08:43:07;2.27;;;2.07;;
49942;SDS011;36011;53.362;58.948;2022-10-14T08:49:53;4.22;;;2.97;;
49942;SDS011;36011;53.362;58.948;2022-10-14T08:53:17;4.72;;;3.00;;
49942;SDS011;36011;53.362;58.948;2022-10-14T08:56:23;4.13;;;2.30;;
49942;SDS011;36011;53.362;58.948;2022-10-14T08:59:27;2.45;;;1.83;;
49942;SDS011;36011;53.362;58.948;2022-10-14T09:05:48;2.33;;;1.58;;
49942;SDS011;36011;53.362;58.948;2022-10-14T09:12:20;2.53;;;2.33;;
49942;SDS011;36011;53.362;58.948;2022-10-14T09:15:33;4.70;;;2.10;;
49942;SDS011;36011;53.362;58.948;2022-10-14T09:22:10;3.90;;;3.17;;
49942;SDS011;36011;53.362;58.948;2022-10-14T09:25:15;4.05;;;2.60;;
49942;SDS011;36011;53.362;58.948;2022-10-14T09:28:28;4.32;;;3.33;;
49942;SDS011;36011;53.362;58.948;2022-10-14T09:31:36;4.93;;;2.92;;
49942;SDS011;36011;53.362;58.948;2022-10-14T09:34:44;4.18;;;3.50;;
49942;SDS011;36011;53.362;58.948;2022-10-14T09:37:52;4.93;;;4.13;;
49942;SDS011;36011;53.362;58.948;2022-10-14T09:40:55;5.72;;;3.33;;
49942;SDS011;36011;53.362;58.948;2022-10-14T09:47:38;4.00;;;3.42;;
49942;SDS011;36011;53.362;58.948;2022-10-14T09:51:05;5.38;;;4.53;;
49942;SDS011;36011;53.362;58.948;2022-10-14T09:54:17;5.07;;;3.47;;
49942;SDS011;36011;53.362;58.948;2022-10-14T09:57:23;4.18;;;3.17;;
49942;SDS011;36011;53.362;58.948;2022-10-14T10:00:29;3.75;;;3.25;;
49942;SDS011;36011;53.362;58.948;2022-10-14T10:03:36;3.35;;;2.97;;
49942;SDS011;36011;53.362;58.948;2022-10-14T10:06:49;5.30;;;3.45;;
49942;SDS011;36011;53.362;58.948;2022-10-14T10:09:53;4.15;;;3.53;;
49942;SDS011;36011;53.362;58.948;2022-10-14T10:12:56;4.45;;;3.88;;
49942;SDS011;36011;53.362;58.948;2022-10-14T10:15:59;3.80;;;3.05;;
49942;SDS011;36011;53.362;58.948;2022-10-14T10:19:24;4.18;;;3.40;;
49942;SDS011;36011;53.362;58.948;2022-10-14T10:22:32;4.60;;;3.53;;
49942;SDS011;36011;53.362;58.948;2022-10-14T10:25:40;4.32;;;3.50;;
49942;SDS011;36011;53.362;58.948;2022-10-14T10:28:48;4.82;;;3.40;;
49942;SDS011;36011;53.362;58.948;2022-10-14T10:32:02;3.70;;;3.10;;
49942;SDS011;36011;53.362;58.948;2022-10-14T10:38:56;4.47;;;3.40;;
49942;SDS011;36011;53.362;58.948;2022-10-14T10:45:35;6.10;;;3.78;;
49942;SDS011;36011;53.362;58.948;2022-10-14T10:48:47;4.70;;;3.67;;
49942;SDS011;36011;53.362;58.948;2022-10-14T10:58:57;5.72;;;3.90;;
49942;SDS011;36011;53.362;58.948;2022-10-14T11:02:30;5.03;;;3.83;;
49942;SDS011;36011;53.362;58.948;2022-10-14T11:08:57;5.55;;;4.07;;
49942;SDS011;36011;53.362;58.948;2022-10-14T11:12:31;4.10;;;3.40;;
49942;SDS011;36011;53.362;58.948;2022-10-14T11:22:32;4.05;;;3.42;;
49942;SDS011;36011;53.362;58.948;2022-10-14T11:26:04;4.43;;;3.63;;
49942;SDS011;36011;53.362;58.948;2022-10-14T11:45:58;9.05;;;6.47;;
49942;SDS011;36011;53.362;58.948;2022-10-14T11:52:28;10.05;;;7.47;;
49942;SDS011;36011;53.362;58.948;2022-10-14T11:55:41;8.35;;;5.93;;
49942;SDS011;36011;53.362;58.948;2022-10-14T11:58:52;8.23;;;5.03;;
49942;SDS011;36011;53.362;58.948;2022-10-14T12:01:57;6.85;;;5.18;;
49942;SDS011;36011;53.362;58.948;2022-10-14T12:05:08;6.05;;;4.60;;
49942;SDS011;36011;53.362;58.948;2022-10-14T12:14:47;5.65;;;4.47;;
49942;SDS011;36011;53.362;58.948;2022-10-14T12:17:58;5.85;;;4.78;;
49942;SDS011;36011;53.362;58.948;2022-10-14T12:21:16;6.60;;;4.43;;
49942;SDS011;36011;53.362;58.948;2022-10-14T12:24:23;5.47;;;4.32;;
49942;SDS011;36011;53.362;58.948;2022-10-14T12:27:33;5.43;;;4.47;;
49942;SDS011;36011;53.362;58.948;2022-10-14T12:30:42;5.85;;;4.72;;
49942;SDS011;36011;53.362;58.948;2022-10-14T12:40:26;5.07;;;4.45;;
49942;SDS011;36011;53.362;58.948;2022-10-14T12:43:28;5.82;;;5.18;;
49942;SDS011;36011;53.362;58.948;2022-10-14T12:46:40;7.45;;;6.30;;
49942;SDS011;36011;53.362;58.948;2022-10-14T12:49:51;10.55;;;7.15;;
49942;SDS011;36011;53.362;58.948;2022-10-14T12:52:57;9.40;;;6.40;;
49942;SDS011;36011;53.362;58.948;2022-10-14T12:56:02;10.63;;;7.03;;
49942;SDS011;36011;53.362;58.948;2022-10-14T12:59:18;10.60;;;7.72;;
49942;SDS011;36011;53.362;58.948;2022-10-14T13:02:42;11.40;;;7.88;;
49942;SDS011;36011;53.362;58.948;2022-10-14T13:05:48;13.13;;;9.55;;
49942;SDS011;36011;53.362;58.948;2022-10-14T13:15:32;9.52;;;7.50;;
49942;SDS011;36011;53.362;58.948;2022-10-14T13:18:58;11.45;;;7.95;;
49942;SDS011;36011;53.362;58.948;2022-10-14T13:22:00;10.05;;;7.40;;
49942;SDS011;36011;53.362;58.948;2022-10-14T13:25:25;10.68;;;8.13;;
49942;SDS011;36011;53.362;58.948;2022-10-14T13:28:37;7.30;;;5.65;;
49942;SDS011;36011;53.362;58.948;2022-10-14T13:35:08;8.82;;;7.28;;
49942;SDS011;36011;53.362;58.948;2022-10-14T13:38:16;11.73;;;7.45;;
49942;SDS011;36011;53.362;58.948;2022-10-14T13:41:20;12.75;;;8.70;;
49942;SDS011;36011;53.362;58.948;2022-10-14T13:44:28;9.98;;;7.45;;
49942;SDS011;36011;53.362;58.948;2022-10-14T13:47:34;8.30;;;6.25;;
49942;SDS011;36011;53.362;58.948;2022-10-14T13:50:36;7.32;;;4.97;;
49942;SDS011;36011;53.362;58.948;2022-10-14T13:53:52;7.10;;;5.07;;
49942;SDS011;36011;53.362;58.948;2022-10-14T13:57:09;8.27;;;3.50;;
49942;SDS011;36011;53.362;58.948;2022-10-14T14:00:25;4.40;;;3.78;;
49942;SDS011;36011;53.362;58.948;2022-10-14T14:03:30;4.28;;;3.00;;
49942;SDS011;36011;53.362;58.948;2022-10-14T14:06:41;4.88;;;3.33;;
49942;SDS011;36011;53.362;58.948;2022-10-14T14:09:47;3.28;;;2.30;;
49942;SDS011;36011;53.362;58.948;2022-10-14T14:12:53;2.63;;;2.40;;
49942;SDS011;36011;53.362;58.948;2022-10-14T14:15:56;3.15;;;2.17;;
49942;SDS011;36011;53.362;58.948;2022-10-14T14:19:00;3.60;;;2.50;;
49942;SDS011;36011;53.362;58.948;2022-10-14T14:25:26;4.38;;;2.50;;
49942;SDS011;36011;53.362;58.948;2022-10-14T14:28:29;3.38;;;2.85;;
49942;SDS011;36011;53.362;58.948;2022-10-14T14:31:32;2.80;;;2.10;;
49942;SDS011;36011;53.362;58.948;2022-10-14T14:34:37;2.60;;;2.00;;
49942;SDS011;36011;53.362;58.948;2022-10-14T14:37:41;4.57;;;2.58;;
49942;SDS011;36011;53.362;58.948;2022-10-14T14:40:58;4.00;;;2.83;;
49942;SDS011;36011;53.362;58.948;2022-10-14T14:44:23;4.77;;;3.50;;
49942;SDS011;36011;53.362;58.948;2022-10-14T14:47:29;7.22;;;4.00;;
49942;SDS011;36011;53.362;58.948;2022-10-14T14:50:32;6.25;;;4.20;;
49942;SDS011;36011;53.362;58.948;2022-10-14T14:53:37;6.07;;;3.75;;
49942;SDS011;36011;53.362;58.948;2022-10-14T14:56:42;7.05;;;4.00;;
49942;SDS011;36011;53.362;58.948;2022-10-14T15:00:02;4.63;;;3.20;;
49942;SDS011;36011;53.362;58.948;2022-10-14T15:03:07;5.60;;;3.30;;
49942;SDS011;36011;53.362;58.948;2022-10-14T15:06:14;4.90;;;2.92;;
49942;SDS011;36011;53.362;58.948;2022-10-14T15:09:22;2.33;;;2.13;;
49942;SDS011;36011;53.362;58.948;2022-10-14T15:12:33;3.40;;;2.67;;
49942;SDS011;36011;53.362;58.948;2022-10-14T15:15:50;3.78;;;2.72;;
49942;SDS011;36011;53.362;58.948;2022-10-14T15:22:22;2.88;;;2.50;;
49942;SDS011;36011;53.362;58.948;2022-10-14T15:25:29;4.35;;;3.00;;
49942;SDS011;36011;53.362;58.948;2022-10-14T15:28:33;7.80;;;4.20;;
49942;SDS011;36011;53.362;58.948;2022-10-14T15:31:39;6.30;;;4.13;;
49942;SDS011;36011;53.362;58.948;2022-10-14T15:34:43;4.88;;;3.42;;
49942;SDS011;36011;53.362;58.948;2022-10-14T15:37:44;5.78;;;3.42;;
49942;SDS011;36011;53.362;58.948;2022-10-14T15:40:47;5.38;;;2.60;;
49942;SDS011;36011;53.362;58.948;2022-10-14T15:43:49;3.90;;;2.70;;
49942;SDS011;36011;53.362;58.948;2022-10-14T15:46:50;3.65;;;2.55;;
49942;SDS011;36011;53.362;58.948;2022-10-14T15:50:16;3.33;;;2.63;;
49942;SDS011;36011;53.362;58.948;2022-10-14T15:53:24;5.75;;;3.88;;
49942;SDS011;36011;53.362;58.948;2022-10-14T15:56:28;5.75;;;4.00;;
49942;SDS011;36011;53.362;58.948;2022-10-14T15:59:30;6.43;;;4.50;;
49942;SDS011;36011;53.362;58.948;2022-10-14T16:02:35;8.77;;;5.28;;
49942;SDS011;36011;53.362;58.948;2022-10-14T16:05:37;6.57;;;4.15;;
49942;SDS011;36011;53.362;58.948;2022-10-14T16:08:39;3.10;;;2.70;;
49942;SDS011;36011;53.362;58.948;2022-10-14T16:11:44;3.17;;;2.70;;
49942;SDS011;36011;53.362;58.948;2022-10-14T16:14:45;3.03;;;2.72;;
49942;SDS011;36011;53.362;58.948;2022-10-14T16:17:47;4.22;;;2.90;;
49942;SDS011;36011;53.362;58.948;2022-10-14T16:20:48;3.45;;;2.50;;
49942;SDS011;36011;53.362;58.948;2022-10-14T16:23:51;3.10;;;2.75;;
49942;SDS011;36011;53.362;58.948;2022-10-14T16:26:53;3.28;;;2.97;;
49942;SDS011;36011;53.362;58.948;2022-10-14T16:29:55;7.90;;;2.95;;
49942;SDS011;36011;53.362;58.948;2022-10-14T16:32:59;3.35;;;2.53;;
49942;SDS011;36011;53.362;58.948;2022-10-14T16:36:03;4.07;;;2.67;;
49942;SDS011;36011;53.362;58.948;2022-10-14T16:39:09;3.83;;;2.92;;
49942;SDS011;36011;53.362;58.948;2022-10-14T16:42:13;4.60;;;2.58;;
49942;SDS011;36011;53.362;58.948;2022-10-14T16:48:19;2.65;;;2.45;;
49942;SDS011;36011;53.362;58.948;2022-10-14T16:51:22;4.45;;;3.17;;
49942;SDS011;36011;53.362;58.948;2022-10-14T16:54:26;3.45;;;3.03;;
49942;SDS011;36011;53.362;58.948;2022-10-14T16:57:27;2.67;;;2.38;;
49942;SDS011;36011;53.362;58.948;2022-10-14T17:00:31;2.83;;;2.47;;
49942;SDS011;36011;53.362;58.948;2022-10-14T17:03:36;3.28;;;2.47;;
49942;SDS011;36011;53.362;58.948;2022-10-14T17:06:43;3.97;;;2.75;;
49942;SDS011;36011;53.362;58.948;2022-10-14T17:09:49;4.57;;;3.47;;
49942;SDS011;36011;53.362;58.948;2022-10-14T17:12:51;4.90;;;3.92;;
49942;SDS011;36011;53.362;58.948;2022-10-14T17:15:58;5.00;;;3.60;;
49942;SDS011;36011;53.362;58.948;2022-10-14T17:19:04;5.53;;;4.15;;
49942;SDS011;36011;53.362;58.948;2022-10-14T17:22:08;5.70;;;3.63;;
49942;SDS011;36011;53.362;58.948;2022-10-14T17:25:09;4.38;;;3.65;;
49942;SDS011;36011;53.362;58.948;2022-10-14T17:28:13;4.43;;;3.25;;
49942;SDS011;36011;53.362;58.948;2022-10-14T17:31:16;4.22;;;3.30;;
49942;SDS011;36011;53.362;58.948;2022-10-14T17:34:22;3.55;;;2.65;;
49942;SDS011;36011;53.362;58.948;2022-10-14T17:37:26;4.85;;;4.15;;
49942;SDS011;36011;53.362;58.948;2022-10-14T17:40:30;4.35;;;3.72;;
49942;SDS011;36011;53.362;58.948;2022-10-14T17:43:33;4.40;;;3.07;;
49942;SDS011;36011;53.362;58.948;2022-10-14T17:46:36;7.30;;;4.33;;
49942;SDS011;36011;53.362;58.948;2022-10-14T17:49:40;4.88;;;4.07;;
49942;SDS011;36011;53.362;58.948;2022-10-14T17:52:44;4.20;;;3.42;;
49942;SDS011;36011;53.362;58.948;2022-10-14T17:55:46;6.03;;;4.40;;
49942;SDS011;36011;53.362;58.948;2022-10-14T17:58:53;5.70;;;4.00;;
49942;SDS011;36011;53.362;58.948;2022-10-14T18:04:59;4.45;;;3.95;;
49942;SDS011;36011;53.362;58.948;2022-10-14T18:08:04;5.18;;;4.00;;
49942;SDS011;36011;53.362;58.948;2022-10-14T18:14:12;5.15;;;4.05;;
49942;SDS011;36011;53.362;58.948;2022-10-14T18:17:17;5.15;;;3.95;;
49942;SDS011;36011;53.362;58.948;2022-10-14T18:20:18;5.20;;;4.00;;
49942;SDS011;36011;53.362;58.948;2022-10-14T18:26:24;5.05;;;4.10;;
49942;SDS011;36011;53.362;58.948;2022-10-14T18:29:26;5.13;;;4.30;;
49942;SDS011;36011;53.362;58.948;2022-10-14T18:32:27;8.10;;;4.75;;
49942;SDS011;36011;53.362;58.948;2022-10-14T18:35:32;4.30;;;3.47;;
49942;SDS011;36011;53.362;58.948;2022-10-14T18:38:38;5.82;;;4.22;;
49942;SDS011;36011;53.362;58.948;2022-10-14T18:41:42;3.78;;;3.05;;
49942;SDS011;36011;53.362;58.948;2022-10-14T18:44:46;3.92;;;3.53;;
49942;SDS011;36011;53.362;58.948;2022-10-14T18:47:53;6.05;;;4.45;;
49942;SDS011;36011;53.362;58.948;2022-10-14T18:51:00;5.53;;;4.13;;
49942;SDS011;36011;53.362;58.948;2022-10-14T18:54:10;5.10;;;4.25;;
49942;SDS011;36011;53.362;58.948;2022-10-14T18:57:16;7.53;;;4.63;;
49942;SDS011;36011;53.362;58.948;2022-10-14T19:00:20;7.55;;;5.20;;
49942;SDS011;36011;53.362;58.948;2022-10-14T19:03:22;7.95;;;4.63;;
49942;SDS011;36011;53.362;58.948;2022-10-14T19:06:26;6.22;;;4.47;;
49942;SDS011;36011;53.362;58.948;2022-10-14T19:09:31;5.30;;;4.05;;
49942;SDS011;36011;53.362;58.948;2022-10-14T19:12:33;5.20;;;4.05;;
49942;SDS011;36011;53.362;58.948;2022-10-14T19:15:43;5.65;;;4.03;;
49942;SDS011;36011;53.362;58.948;2022-10-14T19:18:44;7.00;;;4.97;;
49942;SDS011;36011;53.362;58.948;2022-10-14T19:21:49;5.40;;;4.68;;
49942;SDS011;36011;53.362;58.948;2022-10-14T19:24:54;6.60;;;3.88;;
49942;SDS011;36011;53.362;58.948;2022-10-14T19:27:58;5.03;;;4.43;;
49942;SDS011;36011;53.362;58.948;2022-10-14T19:31:03;5.85;;;4.78;;
49942;SDS011;36011;53.362;58.948;2022-10-14T19:34:14;5.10;;;4.40;;
49942;SDS011;36011;53.362;58.948;2022-10-14T19:37:18;6.07;;;4.80;;
49942;SDS011;36011;53.362;58.948;2022-10-14T19:40:22;7.00;;;5.03;;
49942;SDS011;36011;53.362;58.948;2022-10-14T19:43:24;5.97;;;5.07;;
49942;SDS011;36011;53.362;58.948;2022-10-14T19:46:27;5.38;;;4.47;;
49942;SDS011;36011;53.362;58.948;2022-10-14T19:49:31;6.47;;;4.18;;
49942;SDS011;36011;53.362;58.948;2022-10-14T19:52:38;7.90;;;6.18;;
49942;SDS011;36011;53.362;58.948;2022-10-14T19:58:43;7.35;;;4.97;;
49942;SDS011;36011;53.362;58.948;2022-10-14T20:01:44;6.25;;;4.68;;
49942;SDS011;36011;53.362;58.948;2022-10-14T20:04:48;5.40;;;4.78;;
49942;SDS011;36011;53.362;58.948;2022-10-14T20:07:50;8.20;;;5.65;;
49942;SDS011;36011;53.362;58.948;2022-10-14T20:10:53;7.18;;;5.00;;
49942;SDS011;36011;53.362;58.948;2022-10-14T20:14:03;6.88;;;5.70;;
49942;SDS011;36011;53.362;58.948;2022-10-14T20:17:05;7.47;;;6.70;;
49942;SDS011;36011;53.362;58.948;2022-10-14T20:20:06;7.88;;;5.93;;
49942;SDS011;36011;53.362;58.948;2022-10-14T20:23:10;9.60;;;6.05;;
49942;SDS011;36011;53.362;58.948;2022-10-14T20:26:19;7.05;;;6.10;;
49942;SDS011;36011;53.362;58.948;2022-10-14T20:29:24;7.50;;;5.90;;
49942;SDS011;36011;53.362;58.948;2022-10-14T20:32:31;7.72;;;4.50;;
49942;SDS011;36011;53.362;58.948;2022-10-14T20:35:32;6.70;;;5.20;;
49942;SDS011;36011;53.362;58.948;2022-10-14T20:38:35;7.25;;;5.25;;
49942;SDS011;36011;53.362;58.948;2022-10-14T20:41:40;6.75;;;5.80;;
49942;SDS011;36011;53.362;58.948;2022-10-14T20:44:45;7.47;;;5.65;;
49942;SDS011;36011;53.362;58.948;2022-10-14T20:47:47;8.23;;;6.50;;
49942;SDS011;36011;53.362;58.948;2022-10-14T20:50:49;8.07;;;5.60;;